Time;durP1;ratioP1;P1;durP2;ratioP2;P2;SDS_P1;SDS_P2;PMS_P1;PMS_P2;Temp;Humidity;BMP_temperature;BMP_pressure;BME280_temperature;BME280_humidity;BME280_pressure;Samples;Min_cycle;Max_cycle;Signal;HPM_P1;HPM_P2
2021/06/06 00:01:14;;;;;;;5.88;4.40;;;;;;;11.19;78.94;100402.53;3607343;39;20076;-56
2021/06/06 00:03:49;;;;;;;4.55;3.92;;;;;;;11.16;79.53;100402.78;3605376;39;20398;-54
2021/06/06 00:06:17;;;;;;;5.40;3.88;;;;;;;11.12;78.56;100397.88;3607175;39;20051;-54
2021/06/06 00:08:46;;;;;;;6.03;4.50;;;;;;;11.08;79.81;100396.41;3606751;39;20151;-57
2021/06/06 00:11:21;;;;;;;5.63;3.60;;;;;;;11.03;78.73;100381.88;3607218;39;20051;-57
2021/06/06 00:13:50;;;;;;;4.40;3.72;;;;;;;11.03;78.98;100391.50;3606947;39;20433;-57
2021/06/06 00:16:23;;;;;;;7.68;4.13;;;;;;;11.01;79.94;100393.38;3606964;39;20047;-53
2021/06/06 00:18:51;;;;;;;4.13;3.30;;;;;;;11.00;79.16;100392.56;3606798;39;20059;-55
2021/06/06 00:21:19;;;;;;;6.93;3.40;;;;;;;10.99;78.69;100387.44;3607183;39;20306;-56
2021/06/06 00:23:47;;;;;;;5.50;3.65;;;;;;;10.99;78.43;100397.91;3606910;39;20444;-56
2021/06/06 00:26:15;;;;;;;4.88;3.88;;;;;;;10.92;79.22;100387.06;3607193;39;20067;-56
2021/06/06 00:28:42;;;;;;;4.82;3.67;;;;;;;10.93;78.40;100393.94;3606612;39;20325;-56
2021/06/06 00:31:10;;;;;;;4.28;3.33;;;;;;;10.92;78.77;100389.66;3606694;39;20046;-56
2021/06/06 00:33:38;;;;;;;4.75;3.17;;;;;;;10.92;79.19;100392.28;3603439;39;20411;-55
2021/06/06 00:36:08;;;;;;;4.78;3.08;;;;;;;10.88;80.11;100393.44;3606808;39;20044;-56
2021/06/06 00:38:36;;;;;;;4.47;2.90;;;;;;;10.88;80.18;100395.22;3605762;39;20083;-54
2021/06/06 00:41:05;;;;;;;4.90;3.40;;;;;;;10.88;79.99;100392.63;3605723;39;20051;-56
2021/06/06 00:43:33;;;;;;;6.43;3.72;;;;;;;10.87;79.88;100396.16;3606472;39;20054;-56
2021/06/06 00:46:03;;;;;;;5.30;3.90;;;;;;;10.82;81.55;100393.03;3597572;39;20306;-56
2021/06/06 00:48:31;;;;;;;4.80;3.38;;;;;;;10.80;80.54;100397.53;3605256;39;20055;-55
2021/06/06 00:51:08;;;;;;;5.55;4.28;;;;;;;10.81;81.25;100394.81;3606975;39;20059;-57
2021/06/06 00:53:40;;;;;;;7.20;3.78;;;;;;;10.77;80.68;100394.19;3605659;39;20059;-55
2021/06/06 00:56:15;;;;;;;4.28;3.55;;;;;;;10.81;80.08;100393.97;3605383;39;20039;-55
2021/06/06 00:58:47;;;;;;;4.70;3.85;;;;;;;10.79;80.05;100396.72;3606550;39;20076;-57
2021/06/06 01:01:22;;;;;;;5.15;3.50;;;;;;;10.79;80.90;100399.31;3605600;39;20113;-55
2021/06/06 01:03:55;;;;;;;5.07;2.97;;;;;;;10.79;80.42;100398.50;3606669;39;20055;-53
2021/06/06 01:06:37;;;;;;;4.47;3.88;;;;;;;10.80;81.21;100403.59;3605308;39;20056;-56
2021/06/06 01:09:07;;;;;;;4.30;3.22;;;;;;;10.81;79.78;100399.22;3605656;39;20047;-52
2021/06/06 01:11:55;;;;;;;4.20;3.30;;;;;;;10.81;80.14;100400.03;3605792;39;20051;-56
2021/06/06 01:14:35;;;;;;;3.85;2.97;;;;;;;10.82;80.14;100403.50;3606474;39;20051;-55
2021/06/06 01:17:32;;;;;;;3.90;3.00;;;;;;;10.75;82.58;100398.69;3606713;39;20082;-53
2021/06/06 01:20:29;;;;;;;4.57;3.00;;;;;;;10.79;81.00;100401.94;3606073;39;20055;-55
2021/06/06 01:23:27;;;;;;;4.10;3.28;;;;;;;10.81;80.46;100405.28;3606409;39;20080;-56
2021/06/06 01:25:59;;;;;;;5.53;3.75;;;;;;;10.79;79.99;100398.50;3603959;39;20063;-55
2021/06/06 01:28:54;;;;;;;4.50;3.67;;;;;;;10.81;79.93;100400.03;3603917;39;20052;-52
2021/06/06 01:31:24;;;;;;;5.97;3.20;;;;;;;10.79;79.52;100394.09;3602947;39;20117;-53
2021/06/06 01:34:00;;;;;;;6.65;4.68;;;;;;;10.76;80.21;100399.53;3606125;39;20054;-53
2021/06/06 01:36:36;;;;;;;4.10;3.38;;;;;;;10.73;81.43;100402.38;3603575;39;20044;-55
2021/06/06 01:39:18;;;;;;;5.07;4.20;;;;;;;10.74;80.89;100404.88;3606383;39;20044;-54
2021/06/06 01:41:53;;;;;;;4.22;3.47;;;;;;;10.74;79.76;100396.19;3603979;39;20160;-55
2021/06/06 01:44:30;;;;;;;6.53;4.25;;;;;;;10.76;80.71;100396.91;3605369;39;20054;-55
2021/06/06 01:47:10;;;;;;;6.15;4.03;;;;;;;10.80;80.29;100398.38;3607546;39;20062;-56
2021/06/06 01:49:48;;;;;;;4.50;3.63;;;;;;;10.86;80.28;100399.72;3606766;39;20059;-54
2021/06/06 01:52:22;;;;;;;5.90;4.63;;;;;;;10.89;80.38;100396.91;3608194;39;20059;-55
2021/06/06 01:54:51;;;;;;;7.78;4.30;;;;;;;10.91;80.94;100398.44;3607522;39;20415;-55
2021/06/06 01:57:21;;;;;;;4.93;3.92;;;;;;;10.95;81.94;100402.50;3606694;39;20059;-56
2021/06/06 01:59:58;;;;;;;6.10;3.65;;;;;;;10.96;82.44;100398.94;3606411;39;20137;-56
2021/06/06 02:02:32;;;;;;;4.20;3.55;;;;;;;11.02;81.30;100401.16;3607727;39;20051;-55
2021/06/06 02:05:15;;;;;;;5.57;3.28;;;;;;;11.06;83.51;100390.44;3606831;39;20040;-55
2021/06/06 02:07:47;;;;;;;5.43;3.78;;;;;;;11.11;81.49;100391.81;3606880;39;20051;-56
2021/06/06 02:10:27;;;;;;;4.70;4.20;;;;;;;11.20;81.89;100390.28;3606405;39;20414;-55
2021/06/06 02:13:05;;;;;;;5.07;3.47;;;;;;;11.29;81.82;100390.44;3606793;39;20061;-55
2021/06/06 02:15:36;;;;;;;4.30;3.45;;;;;;;11.35;82.36;100389.19;3607725;39;20044;-56
2021/06/06 02:18:13;;;;;;;5.70;3.55;;;;;;;11.43;81.92;100384.22;3606888;39;20080;-52
2021/06/06 02:20:44;;;;;;;7.35;4.13;;;;;;;11.49;82.59;100385.56;3607578;39;20066;-55
2021/06/06 02:23:18;;;;;;;4.70;3.90;;;;;;;11.54;82.47;100389.50;3607600;39;20051;-56
2021/06/06 02:25:48;;;;;;;5.13;3.92;;;;;;;11.64;81.63;100388.84;3607692;39;20063;-56
2021/06/06 02:28:30;;;;;;;6.78;3.58;;;;;;;11.72;80.92;100386.47;3607851;39;20051;-55
2021/06/06 02:31:09;;;;;;;5.57;3.45;;;;;;;11.76;81.85;100385.28;3607229;39;20058;-54
2021/06/06 02:33:39;;;;;;;6.25;3.28;;;;;;;11.82;82.52;100390.13;3607395;39;20054;-55
2021/06/06 02:36:19;;;;;;;4.88;3.65;;;;;;;11.87;81.49;100388.00;3606511;39;20044;-54
2021/06/06 02:38:55;;;;;;;5.45;3.60;;;;;;;11.92;81.63;100382.41;3607890;39;20356;-55
2021/06/06 02:41:33;;;;;;;7.28;3.00;;;;;;;11.93;82.01;100389.31;3606264;39;20058;-56
2021/06/06 02:44:08;;;;;;;4.05;3.17;;;;;;;11.93;80.88;100389.31;3606452;39;20063;-51
2021/06/06 02:46:44;;;;;;;5.88;3.83;;;;;;;11.95;81.26;100390.84;3607679;39;20111;-50
2021/06/06 02:49:30;;;;;;;5.45;3.50;;;;;;;12.02;80.63;100391.25;3606225;39;20070;-55
2021/06/06 02:52:13;;;;;;;4.38;3.63;;;;;;;12.10;80.23;100388.84;3606281;39;20055;-56
2021/06/06 02:54:56;;;;;;;5.28;2.78;;;;;;;12.17;81.96;100387.44;3607717;39;20044;-56
2021/06/06 02:57:49;;;;;;;4.40;3.22;;;;;;;12.25;79.93;100382.47;3605891;39;20121;-52
2021/06/06 03:00:25;;;;;;;5.78;3.50;;;;;;;12.34;81.62;100378.25;3606513;39;20059;-55
2021/06/06 03:03:01;;;;;;;7.70;4.45;;;;;;;12.44;80.91;100383.66;3606189;39;20042;-56
2021/06/06 03:05:34;;;;;;;4.30;3.15;;;;;;;12.54;81.04;100382.00;3606461;39;20059;-54
2021/06/06 03:08:07;;;;;;;4.78;3.40;;;;;;;12.66;79.52;100382.81;3604312;39;20047;-55
2021/06/06 03:10:39;;;;;;;3.53;2.90;;;;;;;12.78;79.28;100373.97;3604904;39;20075;-54
2021/06/06 03:13:13;;;;;;;3.88;3.10;;;;;;;12.91;80.27;100387.78;3607022;39;20418;-56
2021/06/06 03:15:46;;;;;;;4.05;3.13;;;;;;;13.04;80.98;100377.97;3606482;39;20079;-52
2021/06/06 03:18:18;;;;;;;702.72;370.58;;;;;;;13.18;82.36;100381.28;3607181;39;20136;-53
2021/06/06 03:20:51;;;;;;;141.70;65.75;;;;;;;13.34;83.25;100379.13;3606257;39;20047;-62
2021/06/06 03:23:26;;;;;;;32.65;17.88;;;;;;;13.50;82.07;100381.31;3607327;39;20047;-48
2021/06/06 03:26:02;;;;;;;6.00;4.63;;;;;;;13.64;81.57;100383.66;3602469;39;20036;-58
2021/06/06 03:28:37;;;;;;;8.52;5.30;;;;;;;13.75;81.88;100388.00;3606303;39;20047;-52
2021/06/06 03:31:08;;;;;;;5.53;3.97;;;;;;;13.87;76.68;100387.00;3604998;39;20055;-50
2021/06/06 03:33:48;;;;;;;21.27;10.73;;;;;;;13.98;73.81;100381.66;3606308;39;20050;-56
2021/06/06 03:36:37;;;;;;;5.18;3.47;;;;;;;14.11;74.89;100372.75;3604597;39;20067;-55
2021/06/06 03:39:13;;;;;;;3.33;2.50;;;;;;;14.28;72.44;100385.28;3604029;39;20043;-55
2021/06/06 03:41:44;;;;;;;5.70;3.05;;;;;;;14.43;72.38;100381.38;3607288;39;20383;-58
2021/06/06 03:44:12;;;;;;;27.30;21.23;;;;;;;14.56;72.32;100376.72;3607105;39;20043;-56
2021/06/06 03:46:40;;;;;;;149.40;85.25;;;;;;;14.68;71.70;100374.00;3605090;39;20503;-51
2021/06/06 03:49:10;;;;;;;83.60;47.45;;;;;;;14.82;70.96;100371.00;3607130;39;20633;-55
2021/06/06 03:51:43;;;;;;;23.15;14.60;;;;;;;14.94;70.59;100372.53;3606905;39;20408;-56
2021/06/06 03:54:12;;;;;;;7.05;4.88;;;;;;;15.06;70.44;100365.38;3607157;39;20059;-52
2021/06/06 03:56:43;;;;;;;5.07;2.97;;;;;;;15.16;71.02;100368.00;3606752;39;20392;-55
2021/06/06 03:59:14;;;;;;;3.75;2.80;;;;;;;15.25;69.98;100365.38;3606794;39;20051;-51
2021/06/06 04:01:43;;;;;;;3.10;2.30;;;;;;;15.37;69.21;100366.91;3605984;39;20063;-56
2021/06/06 04:04:12;;;;;;;7.63;3.75;;;;;;;15.49;68.48;100364.97;3606069;39;20125;-53
2021/06/06 04:06:42;;;;;;;201.63;80.22;;;;;;;15.64;69.03;100364.59;3605677;39;20097;-57
2021/06/06 04:09:11;;;;;;;28.02;14.48;;;;;;;15.75;68.57;100367.06;3606912;39;20105;-57
2021/06/06 04:11:39;;;;;;;9.80;5.00;;;;;;;15.84;68.66;100364.41;3606839;39;20055;-54
2021/06/06 04:14:15;;;;;;;4.53;3.08;;;;;;;15.96;67.87;100356.34;3607437;39;20329;-53
2021/06/06 04:16:48;;;;;;;4.60;2.75;;;;;;;16.06;67.26;100360.63;3607235;39;20062;-57
2021/06/06 04:19:17;;;;;;;3.80;2.42;;;;;;;16.13;66.66;100364.34;3605949;39;20108;-58
2021/06/06 04:21:46;;;;;;;4.82;3.25;;;;;;;16.28;66.58;100366.50;3606102;39;20040;-56
2021/06/06 04:24:14;;;;;;;6.00;2.88;;;;;;;16.32;65.90;100371.34;3606056;39;20070;-54
2021/06/06 04:26:49;;;;;;;3.28;2.50;;;;;;;16.42;65.09;100363.41;3605726;39;20075;-50
2021/06/06 04:29:20;;;;;;;6.27;2.93;;;;;;;16.53;65.95;100376.44;3604815;39;20059;-53
2021/06/06 04:31:53;;;;;;;3.53;2.70;;;;;;;16.60;65.18;100376.66;3605957;39;20376;-52
2021/06/06 04:34:22;;;;;;;4.60;3.20;;;;;;;16.70;65.21;100373.97;3605505;39;20048;-57
2021/06/06 04:36:52;;;;;;;132.00;70.43;;;;;;;16.77;64.91;100362.72;3606977;39;20093;-58
2021/06/06 04:39:23;;;;;;;173.55;77.38;;;;;;;16.89;64.72;100358.06;3606960;39;20080;-58
2021/06/06 04:41:53;;;;;;;26.98;13.68;;;;;;;16.99;63.23;100365.91;3606183;39;20136;-58
2021/06/06 04:44:24;;;;;;;9.30;3.63;;;;;;;17.05;63.24;100368.81;3606757;39;20078;-55
2021/06/06 04:46:53;;;;;;;4.90;3.40;;;;;;;17.11;63.40;100370.84;3606760;39;20064;-56
2021/06/06 04:49:22;;;;;;;4.75;2.95;;;;;;;17.14;63.71;100369.72;3606336;39;20051;-57
2021/06/06 04:51:50;;;;;;;4.72;2.40;;;;;;;17.21;64.66;100367.31;3607034;39;20051;-57
2021/06/06 04:54:27;;;;;;;6.00;3.00;;;;;;;17.27;63.27;100375.47;3605639;39;20314;-56
2021/06/06 04:56:55;;;;;;;3.58;2.53;;;;;;;17.34;63.37;100373.06;3586529;40;20044;-57
2021/06/06 04:59:27;;;;;;;4.40;2.78;;;;;;;17.40;61.87;100375.09;3584194;40;20512;-54
2021/06/06 05:01:55;;;;;;;5.90;2.47;;;;;;;17.51;63.35;100371.38;3585654;40;20081;-58
2021/06/06 05:04:23;;;;;;;170.15;81.80;;;;;;;17.55;60.73;100372.75;3585019;40;20055;-55
2021/06/06 05:06:50;;;;;;;47.08;24.50;;;;;;;17.67;61.68;100367.06;3585174;40;20052;-56
2021/06/06 05:09:22;;;;;;;7.80;4.95;;;;;;;17.78;61.14;100370.47;3586257;40;20060;-57
2021/06/06 05:11:58;;;;;;;5.10;2.67;;;;;;;17.87;61.31;100372.19;3585205;40;20073;-57
2021/06/06 05:14:26;;;;;;;3.35;2.67;;;;;;;17.96;60.67;100376.56;3585331;40;20060;-52
2021/06/06 05:16:57;;;;;;;3.30;2.45;;;;;;;18.06;60.49;100372.00;3585244;40;20052;-57
2021/06/06 05:19:29;;;;;;;3.47;2.67;;;;;;;18.14;60.73;100374.72;3585156;40;20134;-51
2021/06/06 05:21:58;;;;;;;4.22;2.63;;;;;;;18.21;60.13;100368.78;3584716;40;20056;-57
2021/06/06 05:24:25;;;;;;;5.35;2.65;;;;;;;18.31;59.90;100366.84;3586131;40;20048;-51
2021/06/06 05:26:53;;;;;;;10.90;6.97;;;;;;;18.42;59.94;100369.25;3586430;40;20060;-58
2021/06/06 05:29:22;;;;;;;14.52;7.40;;;;;;;18.50;59.15;100361.31;3586606;40;20067;-51
2021/06/06 05:31:51;;;;;;;77.35;35.35;;;;;;;18.64;59.15;100366.00;3586251;40;20049;-56
2021/06/06 05:34:19;;;;;;;15.93;6.70;;;;;;;18.76;59.86;100365.75;3585715;40;20048;-52
2021/06/06 05:36:47;;;;;;;5.07;3.40;;;;;;;18.85;59.71;100364.81;3586051;40;20049;-53
2021/06/06 05:39:15;;;;;;;5.22;3.00;;;;;;;18.98;58.50;100367.78;3586757;40;20141;-63
2021/06/06 05:41:42;;;;;;;4.20;2.85;;;;;;;19.11;59.14;100372.63;3586516;40;20052;-51
2021/06/06 05:44:10;;;;;;;5.68;3.13;;;;;;;19.19;59.02;100375.31;3584280;40;20088;-56
2021/06/06 05:46:37;;;;;;;4.30;2.90;;;;;;;19.23;58.52;100370.50;3585225;40;20057;-53
2021/06/06 05:49:05;;;;;;;3.85;2.70;;;;;;;19.36;59.10;100371.66;3586284;40;20081;-53
2021/06/06 05:51:32;;;;;;;4.07;2.80;;;;;;;19.47;57.97;100367.88;3585615;40;20315;-54
2021/06/06 05:54:06;;;;;;;4.72;3.00;;;;;;;19.62;58.79;100368.91;3586116;40;20048;-54
2021/06/06 05:56:34;;;;;;;4.68;3.03;;;;;;;19.66;56.84;100372.06;3602412;39;20121;-57
2021/06/06 05:59:01;;;;;;;4.03;2.63;;;;;;;19.74;55.36;100373.88;3606231;39;20051;-53
2021/06/06 06:01:30;;;;;;;4.65;2.60;;;;;;;19.84;55.73;100374.53;3604265;39;20044;-50
2021/06/06 06:03:57;;;;;;;6.10;2.80;;;;;;;19.92;56.80;100364.72;3606334;39;20052;-55
2021/06/06 06:06:25;;;;;;;92.22;44.97;;;;;;;20.01;55.03;100372.69;3606104;39;20075;-56
2021/06/06 06:08:54;;;;;;;76.30;35.08;;;;;;;20.08;56.79;100371.88;3606242;39;20055;-57
2021/06/06 06:11:22;;;;;;;9.55;5.65;;;;;;;20.25;55.74;100367.31;3605592;39;20059;-58
2021/06/06 06:13:53;;;;;;;8.57;3.03;;;;;;;20.29;54.52;100370.47;3604952;39;20108;-55
2021/06/06 06:16:28;;;;;;;4.05;3.28;;;;;;;20.38;55.58;100372.13;3606252;39;20051;-59
2021/06/06 06:18:57;;;;;;;4.30;2.95;;;;;;;20.43;54.01;100367.13;3606147;39;20115;-57
2021/06/06 06:21:26;;;;;;;4.93;3.10;;;;;;;20.48;54.17;100370.13;3605869;39;20132;-57
2021/06/06 06:23:54;;;;;;;3.78;2.80;;;;;;;20.55;55.81;100365.75;3605986;39;20039;-56
2021/06/06 06:26:23;;;;;;;5.82;3.33;;;;;;;20.52;54.37;100371.44;3604714;39;20330;-58
2021/06/06 06:29:05;;;;;;;10.13;3.15;;;;;;;20.61;55.95;100381.03;3605662;39;20325;-52
2021/06/06 06:31:42;;;;;;;5.80;3.20;;;;;;;20.69;53.54;100380.16;3605846;39;20044;-58
2021/06/06 06:34:19;;;;;;;5.93;3.25;;;;;;;20.75;52.57;100368.00;3606598;39;20055;-53
2021/06/06 06:36:47;;;;;;;5.75;2.78;;;;;;;20.74;52.71;100371.66;3607811;39;20063;-58
2021/06/06 06:39:15;;;;;;;32.53;15.68;;;;;;;20.88;52.59;100373.56;3607664;39;20051;-56
2021/06/06 06:41:42;;;;;;;44.15;26.02;;;;;;;20.93;53.25;100374.72;3607268;39;20050;-58
2021/06/06 06:44:10;;;;;;;9.50;5.18;;;;;;;20.95;54.89;100370.06;3606162;39;20054;-57
2021/06/06 06:46:37;;;;;;;6.47;3.40;;;;;;;21.11;53.58;100377.09;3607401;39;20043;-58
2021/06/06 06:49:08;;;;;;;4.43;2.60;;;;;;;21.23;53.31;100380.22;3607255;39;20051;-54
2021/06/06 06:51:36;;;;;;;5.13;3.05;;;;;;;21.31;52.80;100382.00;3605354;39;20044;-57
2021/06/06 06:54:25;;;;;;;5.72;2.90;;;;;;;21.40;53.15;100387.09;3606438;39;20087;-58
2021/06/06 06:57:24;;;;;;;;;;;;;;;21.47;53.77;100384.56;3606730;39;20132;-58
2021/06/06 07:00:28;;;;;;;5.30;2.78;;;;;;;21.56;49.78;100380.00;3607502;39;19944;-57
2021/06/06 07:03:30;;;;;;;4.35;2.80;;;;;;;21.66;51.74;100377.91;3606393;39;20080;-56
2021/06/06 07:06:15;;;;;;;51.90;26.92;;;;;;;21.82;53.51;100377.75;3607394;39;20051;-59
2021/06/06 07:09:01;;;;;;;39.50;21.75;;;;;;;21.87;54.23;100379.88;3607213;39;20064;-56
2021/06/06 07:11:29;;;;;;;8.43;5.07;;;;;;;22.05;52.50;100374.22;3606096;39;20321;-53
2021/06/06 07:14:00;;;;;;;7.00;3.05;;;;;;;22.02;51.76;100385.25;3606977;39;20047;-55
2021/06/06 07:16:34;;;;;;;3.85;2.90;;;;;;;21.99;49.43;100391.78;3607472;39;20099;-58
2021/06/06 07:19:01;;;;;;;6.32;2.92;;;;;;;21.98;50.10;100388.28;3607285;39;20498;-59
2021/06/06 07:21:29;;;;;;;7.15;3.33;;;;;;;22.03;50.51;100385.06;3606988;39;20051;-60
2021/06/06 07:23:56;;;;;;;4.45;2.65;;;;;;;22.29;51.83;100386.50;3607272;39;20063;-59
2021/06/06 07:26:36;;;;;;;5.80;3.25;;;;;;;22.15;50.57;100380.97;3607755;39;20136;-59
2021/06/06 07:29:09;;;;;;;3.53;2.95;;;;;;;22.20;49.18;100386.56;3607307;39;20044;-60
2021/06/06 07:31:38;;;;;;;4.18;3.10;;;;;;;22.32;48.00;100384.31;3607148;39;20741;-58
2021/06/06 07:34:13;;;;;;;5.35;3.25;;;;;;;22.26;47.08;100389.53;3607045;39;20051;-57
2021/06/06 07:36:42;;;;;;;3.97;2.92;;;;;;;22.41;49.10;100390.38;3607651;39;20055;-58
2021/06/06 07:39:11;;;;;;;4.20;2.85;;;;;;;22.41;49.71;100391.19;3607218;39;20058;-58
2021/06/06 07:41:39;;;;;;;4.85;2.85;;;;;;;22.49;47.59;100388.41;3607050;39;20043;-58
2021/06/06 07:44:06;;;;;;;4.75;2.78;;;;;;;22.56;47.83;100385.84;3606868;39;20056;-56
2021/06/06 07:46:34;;;;;;;3.42;2.55;;;;;;;22.68;48.72;100383.53;3605349;39;20044;-59
2021/06/06 07:49:03;;;;;;;4.20;2.72;;;;;;;22.65;47.88;100382.09;3607117;39;20075;-55
2021/06/06 07:51:34;;;;;;;5.15;2.60;;;;;;;22.82;47.49;100376.53;3604275;39;20055;-57
2021/06/06 07:54:03;;;;;;;4.30;2.92;;;;;;;22.81;47.12;100375.69;3607367;39;20063;-55
2021/06/06 07:56:30;;;;;;;3.08;2.50;;;;;;;23.03;46.71;100381.94;3606947;39;20035;-59
2021/06/06 07:58:58;;;;;;;5.32;2.80;;;;;;;23.08;47.60;100382.22;3606949;39;20095;-59
2021/06/06 08:01:26;;;;;;;36.70;19.25;;;;;;;23.06;48.18;100381.56;3606124;39;20056;-56
2021/06/06 08:03:53;;;;;;;32.50;19.02;;;;;;;23.11;48.48;100370.31;3607157;39;20170;-55
2021/06/06 08:06:22;;;;;;;8.50;4.40;;;;;;;23.29;48.33;100377.91;3607000;39;20520;-56
2021/06/06 08:08:52;;;;;;;6.47;3.00;;;;;;;23.18;49.30;100373.91;3607156;39;20095;-57
2021/06/06 08:11:20;;;;;;;3.90;2.50;;;;;;;23.33;49.32;100379.19;3606847;39;20088;-58
2021/06/06 08:13:47;;;;;;;4.18;2.90;;;;;;;23.19;48.65;100378.22;3606991;39;20051;-58
2021/06/06 08:16:15;;;;;;;4.78;2.92;;;;;;;23.29;48.51;100376.06;3606803;39;20048;-58
2021/06/06 08:18:43;;;;;;;7.53;3.15;;;;;;;23.28;46.36;100384.25;3605980;39;20396;-58
2021/06/06 08:21:38;;;;;;;6.45;2.60;;;;;;;23.19;45.75;100379.03;3607052;39;20445;-58
2021/06/06 08:24:07;;;;;;;4.35;2.90;;;;;;;23.20;47.15;100382.53;3607175;39;20323;-56
2021/06/06 08:26:35;;;;;;;3.85;2.53;;;;;;;23.40;46.70;100374.72;3606931;39;20044;-60
2021/06/06 08:29:05;;;;;;;29.75;15.77;;;;;;;23.29;45.65;100373.38;3606896;39;20070;-60
2021/06/06 08:31:36;;;;;;;36.30;16.23;;;;;;;23.49;47.50;100374.38;3606811;39;20063;-59
2021/06/06 08:34:06;;;;;;;10.40;6.50;;;;;;;23.59;45.71;100374.06;3606620;39;20047;-57
2021/06/06 08:36:45;;;;;;;4.43;2.95;;;;;;;23.73;45.96;100375.03;3606703;39;20339;-58
2021/06/06 08:39:25;;;;;;;4.10;2.78;;;;;;;23.98;46.48;100373.59;3606744;39;20044;-57
2021/06/06 08:42:09;;;;;;;3.47;2.50;;;;;;;23.98;44.25;100370.94;3604691;39;20059;-53
2021/06/06 08:44:42;;;;;;;4.50;3.20;;;;;;;24.18;46.69;100375.59;3606414;39;20302;-58
2021/06/06 08:47:21;;;;;;;4.20;3.35;;;;;;;24.27;46.48;100372.56;3605888;39;20047;-51
2021/06/06 08:49:52;;;;;;;4.32;2.92;;;;;;;24.44;44.69;100373.06;3605839;39;20036;-56
2021/06/06 08:52:39;;;;;;;4.32;2.97;;;;;;;24.41;44.33;100383.38;3606598;39;20048;-57
2021/06/06 08:55:56;;;;;;;4.07;3.25;;;;;;;24.38;42.92;100381.06;3605573;39;20051;-58
2021/06/06 08:58:55;;;;;;;3.28;2.50;;;;;;;24.46;43.14;100379.06;3604874;39;20044;-57
2021/06/06 09:01:48;;;;;;;4.88;3.17;;;;;;;24.60;43.18;100379.13;3590215;39;20056;-54
2021/06/06 09:04:35;;;;;;;4.15;3.30;;;;;;;24.64;45.78;100386.56;3606698;39;20086;-57
2021/06/06 09:07:11;;;;;;;4.65;2.92;;;;;;;24.67;46.55;100380.81;3606581;39;20052;-58
2021/06/06 09:09:43;;;;;;;4.53;3.22;;;;;;;24.63;44.29;100376.03;3606951;39;20063;-58
2021/06/06 09:12:17;;;;;;;5.85;3.85;;;;;;;24.78;44.48;100372.22;3604383;39;20040;-61
2021/06/06 09:14:47;;;;;;;8.15;3.75;;;;;;;24.70;42.75;100371.56;3606561;39;20048;-59
2021/06/06 09:17:17;;;;;;;12.23;9.07;;;;;;;24.89;44.27;100380.69;3606468;39;20035;-58
2021/06/06 09:19:48;;;;;;;8.48;4.53;;;;;;;24.83;42.83;100376.13;3606484;39;20507;-61
2021/06/06 09:22:40;;;;;;;11.80;6.13;;;;;;;25.20;44.20;100386.34;3606497;39;20060;-61
2021/06/06 09:25:28;;;;;;;8.02;3.90;;;;;;;25.18;42.03;100371.53;3606506;39;20083;-55
2021/06/06 09:27:59;;;;;;;8.25;3.38;;;;;;;25.36;44.07;100379.00;3606678;39;20064;-59
2021/06/06 09:30:28;;;;;;;5.07;3.10;;;;;;;25.43;42.89;100372.59;3606370;39;20063;-55
2021/06/06 09:33:06;;;;;;;4.63;2.75;;;;;;;25.59;42.67;100373.22;3603224;39;20406;-57
2021/06/06 09:35:40;;;;;;;7.15;3.03;;;;;;;25.58;44.90;100379.59;3604634;39;20132;-59
2021/06/06 09:38:31;;;;;;;5.68;4.03;;;;;;;25.72;41.76;100379.41;3604401;39;20058;-57
2021/06/06 09:41:17;;;;;;;4.32;3.10;;;;;;;25.61;42.44;100374.66;3606324;39;20428;-52
2021/06/06 09:44:01;;;;;;;4.70;3.15;;;;;;;25.79;41.28;100371.41;3606133;39;20062;-57
2021/06/06 09:46:46;;;;;;;8.68;3.17;;;;;;;25.59;40.20;100375.91;3606365;39;20078;-58
2021/06/06 09:49:45;;;;;;;4.82;3.20;;;;;;;25.77;40.12;100373.47;3606255;39;20126;-53
2021/06/06 09:52:42;;;;;;;14.60;4.53;;;;;;;25.92;40.95;100374.09;3606392;39;20040;-52
2021/06/06 09:55:27;;;;;;;25.25;6.90;;;;;;;26.13;39.09;100369.50;3605239;39;20044;-49
2021/06/06 09:58:11;;;;;;;13.05;4.72;;;;;;;26.60;40.44;100365.69;3605144;39;20044;-57
2021/06/06 10:00:44;;;;;;;7.20;2.83;;;;;;;26.77;38.60;100360.66;3606389;39;20058;-57
2021/06/06 10:03:41;;;;;;;44.72;27.83;;;;;;;26.79;39.63;100361.28;3606018;39;20055;-57
2021/06/06 10:06:41;;;;;;;6.07;3.78;;;;;;;27.27;41.21;100353.59;3606692;39;20314;-56
2021/06/06 10:09:18;;;;;;;6.35;2.33;;;;;;;26.63;38.45;100357.19;3607557;39;20064;-61
2021/06/06 10:12:00;;;;;;;8.68;2.38;;;;;;;26.60;37.20;100375.59;3607378;39;20048;-56
2021/06/06 10:14:35;;;;;;;4.43;2.20;;;;;;;26.66;38.24;100355.97;3608412;39;20044;-58
2021/06/06 10:17:07;;;;;;;2.65;1.77;;;;;;;26.88;37.01;100359.19;3608059;39;20056;-56
2021/06/06 10:20:23;;;;;;;5.47;2.03;;;;;;;26.89;36.66;100352.75;3605687;39;20422;-57
2021/06/06 10:23:03;;;;;;;3.17;2.00;;;;;;;26.73;34.80;100352.22;3604146;39;20087;-58
2021/06/06 10:25:46;;;;;;;4.70;1.92;;;;;;;27.17;35.76;100345.19;3606501;39;20873;-59
2021/06/06 10:28:20;;;;;;;6.63;2.13;;;;;;;27.24;34.89;100340.56;3607721;39;20275;-56
2021/06/06 10:31:09;;;;;;;4.85;1.63;;;;;;;27.25;36.19;100342.25;3607630;39;20055;-55
2021/06/06 10:33:45;;;;;;;5.30;1.70;;;;;;;27.41;35.06;100332.81;3607654;39;20055;-56
2021/06/06 10:36:18;;;;;;;3.03;1.60;;;;;;;27.40;37.59;100333.88;3607156;39;20063;-61
2021/06/06 10:38:46;;;;;;;5.38;1.85;;;;;;;27.55;36.22;100331.66;3607140;39;20087;-59
2021/06/06 10:41:16;;;;;;;3.20;1.73;;;;;;;27.56;33.99;100327.94;3607573;39;20087;-59
2021/06/06 10:44:16;;;;;;;32.47;19.90;;;;;;;27.91;36.09;100329.28;3607339;39;20047;-58
2021/06/06 10:47:38;;;;;;;8.73;4.45;;;;;;;27.74;34.35;100313.75;3596992;39;20114;-59
2021/06/06 10:50:24;;;;;;;4.57;1.80;;;;;;;27.50;33.56;100309.19;3574225;40;20170;-60
2021/06/06 10:53:05;;;;;;;4.10;1.80;;;;;;;27.37;33.42;100312.81;3601348;39;20052;-54
2021/06/06 10:55:36;;;;;;;2.97;1.80;;;;;;;28.03;34.26;100312.22;3606399;39;20028;-58
2021/06/06 10:58:14;;;;;;;3.45;1.65;;;;;;;27.90;34.79;100306.97;3607362;39;20047;-53
2021/06/06 11:01:03;;;;;;;3.50;1.70;;;;;;;27.80;34.06;100304.78;3607541;39;20083;-58
2021/06/06 11:03:35;;;;;;;4.03;1.80;;;;;;;27.92;33.26;100302.22;3605498;39;20145;-57
2021/06/06 11:06:25;;;;;;;2.58;1.60;;;;;;;28.00;34.70;100309.16;3607711;39;20047;-58
2021/06/06 11:08:53;;;;;;;59.22;25.90;;;;;;;28.50;35.79;100299.06;3606604;39;20052;-59
2021/06/06 11:11:40;;;;;;;6.97;4.28;;;;;;;28.36;34.87;100302.16;3607066;39;20083;-55
2021/06/06 11:14:07;;;;;;;5.10;2.03;;;;;;;28.56;32.59;100295.47;3607518;39;20060;-60
2021/06/06 11:16:48;;;;;;;3.38;1.55;;;;;;;28.38;34.38;100298.19;3607299;39;20054;-59
2021/06/06 11:19:18;;;;;;;2.70;1.73;;;;;;;28.33;34.01;100311.47;3607015;39;20363;-55
2021/06/06 11:21:50;;;;;;;7.20;2.00;;;;;;;28.61;33.74;100316.31;3607098;39;20058;-55
2021/06/06 11:24:32;;;;;;;4.22;2.00;;;;;;;28.88;36.31;100314.09;3606821;39;20137;-56
2021/06/06 11:27:11;;;;;;;3.67;1.58;;;;;;;29.59;34.39;100310.53;3606768;39;20135;-55
2021/06/06 11:30:17;;;;;;;2.38;1.35;;;;;;;29.49;32.15;100307.56;3607034;39;20532;-57
2021/06/06 11:33:01;;;;;;;5.60;1.63;;;;;;;28.71;33.05;100311.19;3600618;39;20043;-56
2021/06/06 11:35:36;;;;;;;5.30;1.95;;;;;;;27.96;33.45;100313.31;3606803;39;20055;-57
2021/06/06 11:38:26;;;;;;;3.58;1.67;;;;;;;26.89;34.83;100313.31;3607649;39;20070;-58
2021/06/06 11:41:30;;;;;;;2.53;1.58;;;;;;;25.93;35.34;100319.44;3607264;39;20437;-54
2021/06/06 11:44:12;;;;;;;3.08;1.85;;;;;;;25.92;36.08;100314.28;3607599;39;20055;-58
2021/06/06 11:47:15;;;;;;;2.60;1.45;;;;;;;25.40;36.64;100319.47;3607168;39;20333;-55
2021/06/06 11:50:10;;;;;;;2.75;1.70;;;;;;;25.25;36.72;100318.81;3607125;39;20044;-58
2021/06/06 11:52:45;;;;;;;1.80;1.42;;;;;;;25.01;38.36;100321.00;3606866;39;20055;-54
2021/06/06 11:55:24;;;;;;;4.13;1.90;;;;;;;25.08;37.54;100325.59;3607033;39;20032;-59
2021/06/06 11:58:05;;;;;;;353.60;224.25;;;;;;;25.85;39.87;100329.56;3607207;39;20322;-56
2021/06/06 12:00:43;;;;;;;93.40;34.00;;;;;;;26.51;40.95;100319.50;3606982;39;20502;-59
2021/06/06 12:03:15;;;;;;;5.05;2.90;;;;;;;26.62;35.29;100323.38;3606834;39;20051;-55